Portada
METAR-TAF:

METAR-TAF

Aeroports :

Fort Chipewyan, Alberta, Canadà

latitud: 58-46N, longitud: 111-07W, altitud: 232 m

Observació

L'informe es va fer fa 46 minuts, a les 01:00 UTC
Vent 12 kt del Nord amb ràfegues de 17 kt, variant entre Oest/Nord-Oest i Nord/Nord-Est
Temperatura 11°C
Humitat 35%
Pressió 1006 hPa
Visibilitat: 14.5 km
Cel ennuvolat a una alçada de 6600 ft
Cel ennuvolat a una alçada de 8300 ft

METAR: CYPY 170100Z AUTO 36012G17KT 290V020 9SM BKN066 BKN083 11/M04 A2971 RMK SLP072

Hora: 19:46 (01:46 UTC)

Pronòstic

L'informe es va fer fa 2 hores i 6 minuts, a les 23:40 UTC
Pronòstic vàlid del 17 a les 00 UTC al 17 a les 06 UTC
Vent 15 kt del Nord/Nord-Oest amb ràfegues de 25 kt
Visibilitat: 10 km
Cel ennuvolat a una alçada de 8000 ft
Temporalment
l' 17 a les 00 UTC al 17 a les 06 UTC
Núvols disperses a una alçada de 8000 ft

TAF: CYPY 162340Z 1700/1706 34015G25KT P6SM BKN080 TEMPO 1700/1706 SCT080 RMK FCST BASED ON AUTO OBS. NXT FCST BY 171200Z

Observacions i pronòstics meteorològics de més de 4000 aeroports (METAR i TAF).

Les estacions disponibles són els punts grocs i vermells al mapa.

Posi el ratolí al punt desitjat per veure el nom de l'estació.

Feu clic per veure les observacions i els pronòstics meteorològics.

Per canviar el mapa: feu clic els botons verds amb una creu de color negre per apropar; al botó verd amb un guió per allunyar la imatge; o en les fletxes verdes per a mapes adjacents.


METAR-TAF: